createdAt,value
2018-10-02T00:02:15.368Z,2.10
2018-10-02T00:04:42.868Z,1.70
2018-10-02T00:07:10.487Z,1.60
2018-10-02T00:09:38.873Z,1.57
2018-10-02T00:12:12.161Z,1.67
2018-10-02T00:14:39.817Z,2.07
2018-10-02T00:17:07.370Z,1.73
2018-10-02T00:19:34.989Z,1.50
2018-10-02T00:22:02.731Z,1.50
2018-10-02T00:24:30.276Z,2.10
2018-10-02T00:26:57.845Z,1.50
2018-10-02T00:29:25.382Z,2.10
2018-10-02T00:31:52.992Z,2.00
2018-10-02T00:34:20.458Z,2.00
2018-10-02T00:36:48.102Z,1.70
2018-10-02T00:39:15.757Z,1.87
2018-10-02T00:41:43.306Z,2.10
2018-10-02T00:44:10.833Z,1.43
2018-10-02T00:46:38.977Z,2.00
2018-10-02T00:49:06.505Z,2.17
2018-10-02T00:51:34.046Z,2.07
2018-10-02T00:54:01.560Z,1.47
2018-10-02T00:56:29.065Z,1.80
2018-10-02T00:58:56.606Z,1.60
2018-10-02T01:01:24.299Z,1.47
2018-10-02T01:03:51.873Z,1.50
2018-10-02T01:06:19.468Z,1.57
2018-10-02T01:08:47.062Z,1.77
2018-10-02T01:11:14.659Z,1.57
2018-10-02T01:13:42.293Z,1.77
2018-10-02T01:16:09.887Z,1.70
2018-10-02T01:18:38.252Z,2.63
2018-10-02T01:21:05.894Z,1.57
2018-10-02T01:23:33.547Z,1.50
2018-10-02T01:26:01.240Z,2.10
2018-10-02T01:28:28.946Z,1.60
2018-10-02T01:30:56.640Z,1.87
2018-10-02T01:33:24.328Z,1.67
2018-10-02T01:35:51.931Z,1.13
2018-10-02T01:38:19.709Z,1.30
2018-10-02T01:40:47.258Z,1.23
2018-10-02T01:43:14.920Z,1.50
2018-10-02T01:45:42.599Z,1.90
2018-10-02T01:48:10.158Z,1.40
2018-10-02T01:50:38.547Z,1.10
2018-10-02T01:53:06.129Z,1.27
2018-10-02T01:55:33.883Z,1.60
2018-10-02T01:58:01.415Z,2.23
2018-10-02T02:00:29.222Z,2.33
2018-10-02T02:02:56.791Z,2.37
2018-10-02T02:05:24.390Z,2.27
2018-10-02T02:07:52.158Z,2.63
2018-10-02T02:10:19.769Z,2.23
2018-10-02T02:12:47.382Z,2.10
2018-10-02T02:15:15.114Z,2.23
2018-10-02T02:17:43.069Z,1.70
2018-10-02T02:20:10.919Z,2.30
2018-10-02T02:22:39.321Z,1.73
2018-10-02T02:25:06.904Z,2.20
2018-10-02T02:27:34.584Z,2.43
2018-10-02T02:30:02.395Z,2.07
2018-10-02T02:32:30.194Z,2.03
2018-10-02T02:34:58.015Z,1.70
2018-10-02T02:37:25.774Z,1.77
2018-10-02T02:39:53.428Z,2.00
2018-10-02T02:42:21.202Z,1.90
2018-10-02T02:44:49.010Z,1.73
2018-10-02T02:47:22.478Z,1.50
2018-10-02T02:49:55.807Z,1.83
2018-10-02T02:52:25.869Z,1.97
2018-10-02T02:54:53.457Z,2.40
2018-10-02T02:57:21.018Z,1.37
2018-10-02T02:59:48.567Z,1.77
2018-10-02T03:02:16.120Z,1.70
2018-10-02T03:04:43.658Z,1.70
2018-10-02T03:07:11.287Z,2.00
2018-10-02T03:09:39.578Z,1.60
2018-10-02T03:12:07.182Z,0.73
2018-10-02T03:14:34.734Z,2.83
2018-10-02T03:17:02.309Z,2.33
2018-10-02T03:19:30.004Z,2.30
2018-10-02T03:21:57.927Z,1.90
2018-10-02T03:24:25.690Z,2.77
2018-10-02T03:26:53.330Z,2.03
2018-10-02T03:29:20.922Z,2.57
2018-10-02T03:31:48.735Z,2.93
2018-10-02T03:34:16.352Z,2.10
2018-10-02T03:36:43.993Z,2.23
2018-10-02T03:39:11.892Z,2.80
2018-10-02T03:41:41.032Z,2.37
2018-10-02T03:44:08.706Z,2.93
2018-10-02T03:46:36.320Z,3.57
2018-10-02T03:49:03.986Z,2.37
2018-10-02T03:51:31.626Z,3.73
2018-10-02T03:53:59.328Z,2.50
2018-10-02T03:56:30.902Z,2.83
2018-10-02T03:58:58.685Z,2.97
2018-10-02T04:01:26.406Z,2.57
2018-10-02T04:03:54.138Z,2.63
2018-10-02T04:06:21.752Z,3.13
2018-10-02T04:08:49.392Z,3.10
2018-10-02T04:11:17.165Z,2.60
2018-10-02T04:13:44.809Z,3.17
2018-10-02T04:16:12.634Z,2.27
2018-10-02T04:18:40.389Z,2.50
2018-10-02T04:21:08.052Z,2.97
2018-10-02T04:23:35.757Z,2.40
2018-10-02T04:26:03.587Z,2.60
2018-10-02T04:28:31.348Z,2.67
2018-10-02T04:30:59.157Z,3.30
2018-10-02T04:33:27.161Z,3.27
2018-10-02T04:35:54.795Z,2.70
2018-10-02T04:38:22.504Z,4.17
2018-10-02T04:40:50.645Z,2.87
2018-10-02T04:43:18.316Z,2.60
2018-10-02T04:45:46.007Z,2.67
2018-10-02T04:48:13.740Z,2.97
2018-10-02T04:50:41.438Z,3.20
2018-10-02T04:53:09.042Z,2.80
2018-10-02T04:55:36.750Z,3.60
2018-10-02T04:58:04.587Z,3.67
2018-10-02T05:00:32.197Z,2.50
2018-10-02T05:03:00.227Z,3.30
2018-10-02T05:05:28.183Z,3.80
2018-10-02T05:07:56.063Z,2.93
2018-10-02T05:10:23.927Z,3.63
2018-10-02T05:12:51.688Z,3.40
2018-10-02T05:15:19.575Z,3.30
2018-10-02T05:17:47.463Z,3.37
2018-10-02T05:20:15.430Z,3.20
2018-10-02T05:22:43.088Z,3.03
2018-10-02T05:25:10.796Z,3.30
2018-10-02T05:27:39.518Z,4.53
2018-10-02T05:30:07.195Z,4.67
2018-10-02T05:32:37.370Z,3.70
2018-10-02T05:35:06.002Z,2.77
2018-10-02T05:37:34.006Z,4.13
2018-10-02T05:40:01.706Z,3.50
2018-10-02T05:42:29.539Z,5.10
2018-10-02T05:44:57.120Z,5.20
2018-10-02T05:47:25.031Z,4.53
2018-10-02T05:49:52.840Z,4.50
2018-10-02T05:52:21.660Z,4.47
2018-10-02T05:54:49.695Z,4.03
2018-10-02T05:57:17.737Z,3.77
2018-10-02T05:59:45.681Z,3.90
2018-10-02T06:02:15.455Z,3.87
2018-10-02T06:04:43.912Z,4.17
2018-10-02T06:07:11.873Z,3.67
2018-10-02T06:09:40.185Z,3.00
2018-10-02T06:12:08.108Z,3.33
2018-10-02T06:14:35.998Z,3.30
2018-10-02T06:17:04.005Z,3.53
2018-10-02T06:19:31.942Z,3.43
2018-10-02T06:22:00.070Z,3.80
2018-10-02T06:24:28.902Z,4.80
2018-10-02T06:26:56.750Z,3.33
2018-10-02T06:29:24.889Z,4.57
2018-10-02T06:31:52.894Z,3.80
2018-10-02T06:34:20.875Z,3.90
2018-10-02T06:36:49.263Z,3.43
2018-10-02T06:39:17.183Z,3.27
2018-10-02T06:41:45.108Z,4.20
2018-10-02T06:44:13.217Z,3.43
2018-10-02T06:46:41.110Z,3.40
2018-10-02T06:49:09.112Z,3.73
2018-10-02T06:51:37.051Z,3.53
2018-10-02T06:54:04.940Z,4.40
2018-10-02T06:56:32.976Z,3.47
2018-10-02T06:59:00.833Z,3.23
2018-10-02T07:01:29.032Z,2.70
2018-10-02T07:03:57.252Z,3.40
2018-10-02T07:06:25.180Z,2.83
2018-10-02T07:08:53.168Z,3.03
2018-10-02T07:11:21.208Z,2.70
2018-10-02T07:13:49.051Z,4.73
2018-10-02T07:16:17.002Z,3.23
2018-10-02T07:18:44.913Z,4.10
2018-10-02T07:21:12.855Z,3.27
2018-10-02T07:23:41.023Z,2.87
2018-10-02T07:26:09.276Z,2.57
2018-10-02T07:28:39.089Z,2.60
2018-10-02T07:31:07.580Z,3.37
2018-10-02T07:33:35.607Z,3.03
2018-10-02T07:36:03.580Z,3.27
2018-10-02T07:38:34.720Z,2.27
2018-10-02T07:41:02.954Z,2.33
2018-10-02T07:43:31.883Z,3.10
2018-10-02T07:45:59.919Z,2.10
2018-10-02T07:48:27.765Z,2.10
2018-10-02T07:50:55.917Z,2.33
2018-10-02T07:53:23.744Z,2.23
2018-10-02T07:55:51.580Z,2.50
2018-10-02T07:58:19.427Z,2.73
2018-10-02T08:00:47.325Z,2.50
2018-10-02T08:03:15.166Z,2.60
2018-10-02T08:05:43.066Z,2.57
2018-10-02T08:08:10.902Z,2.50
2018-10-02T08:10:39.264Z,2.50
2018-10-02T08:13:07.286Z,2.50
2018-10-02T08:15:35.372Z,2.63
2018-10-02T08:18:03.639Z,2.47
2018-10-02T08:20:31.548Z,3.10
2018-10-02T08:22:59.516Z,2.67
2018-10-02T08:25:27.451Z,2.53
2018-10-02T08:27:55.471Z,2.17
2018-10-02T08:30:23.440Z,2.10
2018-10-02T08:32:51.436Z,2.93
2018-10-02T08:35:19.479Z,2.33
2018-10-02T08:37:47.345Z,2.30
2018-10-02T08:40:15.210Z,1.90
2018-10-02T08:42:43.166Z,2.43
2018-10-02T08:45:11.045Z,2.33
2018-10-02T08:47:40.736Z,2.27
2018-10-02T08:50:08.865Z,1.93
2018-10-02T08:52:37.640Z,1.83
2018-10-02T08:55:05.603Z,1.90
2018-10-02T08:57:33.725Z,1.77
2018-10-02T09:00:01.673Z,2.07
2018-10-02T09:02:29.923Z,1.70
2018-10-02T09:04:58.215Z,1.77
2018-10-02T09:07:26.088Z,2.10
2018-10-02T09:09:54.022Z,2.27
2018-10-02T09:12:21.962Z,1.77
2018-10-02T09:14:49.888Z,2.57
2018-10-02T09:17:17.775Z,1.73
2018-10-02T09:19:45.787Z,2.17
2018-10-02T09:22:14.062Z,2.30
2018-10-02T09:24:41.980Z,2.00
2018-10-02T09:27:09.881Z,1.40
2018-10-02T09:29:43.269Z,2.07
2018-10-02T09:32:16.870Z,1.87
2018-10-02T09:34:50.243Z,2.03
2018-10-02T09:39:26.663Z,2.40
2018-10-02T09:42:00.125Z,2.20
2018-10-02T09:44:28.250Z,2.10
2018-10-02T09:46:56.187Z,2.70
2018-10-02T09:49:24.316Z,2.57
2018-10-02T09:51:52.390Z,2.80
2018-10-02T09:54:20.301Z,3.03
2018-10-02T09:56:48.467Z,3.50
2018-10-02T09:59:16.548Z,2.47
2018-10-02T10:01:50.186Z,2.77
2018-10-02T10:04:19.321Z,2.30
2018-10-02T10:06:47.159Z,2.50
2018-10-02T10:09:15.032Z,2.10
2018-10-02T10:11:43.197Z,3.30
2018-10-02T10:14:11.049Z,2.57
2018-10-02T10:16:40.189Z,2.10
2018-10-02T10:19:08.197Z,3.07
2018-10-02T10:21:36.490Z,2.30
2018-10-02T10:24:04.314Z,2.13
2018-10-02T10:26:32.325Z,3.37
2018-10-02T10:29:00.300Z,2.50
2018-10-02T10:31:28.968Z,2.80
2018-10-02T10:33:57.626Z,2.67
2018-10-02T10:36:25.694Z,2.67
2018-10-02T10:38:54.502Z,2.33
2018-10-02T10:41:22.456Z,2.70
2018-10-02T10:43:50.577Z,2.47
2018-10-02T10:46:18.756Z,2.00
2018-10-02T10:48:46.623Z,1.77
2018-10-02T10:51:14.633Z,2.40
2018-10-02T10:53:44.493Z,2.40
2018-10-02T10:56:12.645Z,2.37
2018-10-02T10:58:41.691Z,2.80
2018-10-02T11:01:09.557Z,2.40
2018-10-02T11:03:37.547Z,2.57
2018-10-02T11:06:05.744Z,2.37
2018-10-02T11:08:35.724Z,3.20
2018-10-02T11:11:03.760Z,2.10
2018-10-02T11:13:31.597Z,2.50
2018-10-02T11:15:59.648Z,2.23
2018-10-02T11:18:27.722Z,2.50
2018-10-02T11:20:56.693Z,2.60
2018-10-02T11:23:24.620Z,2.90
2018-10-02T11:25:52.527Z,2.40
2018-10-02T11:28:20.340Z,2.30
2018-10-02T11:30:48.165Z,2.27
2018-10-02T11:33:15.995Z,2.70
2018-10-02T11:35:44.357Z,2.53
2018-10-02T11:38:12.132Z,2.50
2018-10-02T11:40:40.875Z,2.57
2018-10-02T11:43:08.806Z,3.00
2018-10-02T11:45:36.783Z,2.83
2018-10-02T11:48:04.878Z,2.70
2018-10-02T11:50:32.976Z,2.60
2018-10-02T11:53:00.952Z,2.37
2018-10-02T11:55:28.994Z,2.90
2018-10-02T11:57:57.762Z,2.90
2018-10-02T12:00:26.844Z,2.17
2018-10-02T12:02:54.737Z,2.00
2018-10-02T12:05:22.579Z,2.07
2018-10-02T12:07:51.242Z,2.23
2018-10-02T12:10:19.237Z,2.30
2018-10-02T12:12:47.147Z,2.00
2018-10-02T12:15:18.288Z,1.87
2018-10-02T12:17:46.081Z,1.97
2018-10-02T12:20:14.025Z,1.93
2018-10-02T12:22:42.044Z,1.70
2018-10-02T12:25:09.913Z,2.07
2018-10-02T12:27:37.785Z,1.67
2018-10-02T12:30:05.923Z,2.20
2018-10-02T12:32:34.000Z,1.33
2018-10-02T12:35:01.897Z,1.57
2018-10-02T12:37:29.760Z,2.10
2018-10-02T12:39:57.765Z,2.20
2018-10-02T12:42:25.823Z,1.43
2018-10-02T12:44:53.788Z,2.67
2018-10-02T12:47:21.674Z,1.90
2018-10-02T12:49:49.616Z,2.23
2018-10-02T12:52:17.590Z,2.00
2018-10-02T12:54:45.387Z,1.90
2018-10-02T12:57:13.416Z,1.67
2018-10-02T12:59:41.236Z,1.77
2018-10-02T13:02:09.193Z,1.63
2018-10-02T13:04:37.095Z,1.70
2018-10-02T13:07:05.082Z,1.73
2018-10-02T13:09:33.177Z,1.50
2018-10-02T13:12:01.421Z,1.13
2018-10-02T13:14:30.825Z,1.90
2018-10-02T13:16:58.977Z,1.50
2018-10-02T13:19:27.084Z,2.00
2018-10-02T13:21:54.922Z,1.57
2018-10-02T13:24:22.956Z,1.20
2018-10-02T13:26:50.853Z,1.43
2018-10-02T13:29:19.839Z,1.00
2018-10-02T13:31:47.711Z,1.13
2018-10-02T13:34:15.651Z,1.50
2018-10-02T13:36:43.798Z,1.40
2018-10-02T13:39:11.696Z,1.83
2018-10-02T13:41:40.145Z,1.30
2018-10-02T13:44:08.221Z,1.60
2018-10-02T13:46:36.397Z,1.83
2018-10-02T13:49:04.291Z,1.33
2018-10-02T13:51:32.231Z,2.17
2018-10-02T13:54:00.339Z,1.60
2018-10-02T13:56:28.197Z,2.47
2018-10-02T13:58:56.252Z,1.57
2018-10-02T14:01:24.259Z,1.30
2018-10-02T14:03:52.120Z,1.40
2018-10-02T14:06:20.025Z,1.40
2018-10-02T14:08:48.078Z,1.60
2018-10-02T14:11:16.074Z,1.00
2018-10-02T14:13:44.170Z,1.30
2018-10-02T14:16:12.071Z,1.00
2018-10-02T14:18:40.475Z,1.30
2018-10-02T14:21:08.366Z,1.47
2018-10-02T14:23:36.264Z,1.83
2018-10-02T14:26:04.444Z,1.23
2018-10-02T14:28:32.504Z,1.23
2018-10-02T14:31:00.384Z,1.43
2018-10-02T14:33:28.272Z,1.30
2018-10-02T14:35:56.377Z,1.07
2018-10-02T14:38:24.359Z,1.20
2018-10-02T14:40:52.712Z,1.10
2018-10-02T14:43:21.061Z,1.50
2018-10-02T14:45:48.918Z,1.40
2018-10-02T14:48:16.918Z,1.20
2018-10-02T14:50:44.883Z,0.97
2018-10-02T14:53:12.759Z,1.20
2018-10-02T14:55:41.278Z,1.27
2018-10-02T14:58:09.489Z,1.37
2018-10-02T15:00:37.472Z,1.47
2018-10-02T15:03:05.521Z,1.33
2018-10-02T15:05:33.737Z,1.57
2018-10-02T15:08:01.813Z,1.53
2018-10-02T15:10:29.959Z,1.40
2018-10-02T15:12:57.854Z,1.90
2018-10-02T15:15:26.182Z,1.77
2018-10-02T15:17:54.183Z,1.77
2018-10-02T15:20:22.975Z,2.20
2018-10-02T15:22:50.979Z,1.93
2018-10-02T15:25:19.086Z,2.17
2018-10-02T15:27:47.182Z,1.40
2018-10-02T15:30:16.049Z,1.27
2018-10-02T15:32:54.045Z,1.13
2018-10-02T15:35:22.008Z,1.20
2018-10-02T15:37:51.342Z,1.30
2018-10-02T15:40:19.382Z,1.50
2018-10-02T15:42:47.659Z,1.60
2018-10-02T15:45:19.094Z,1.30
2018-10-02T15:47:49.431Z,1.60
2018-10-02T15:50:17.805Z,1.30
2018-10-02T15:52:50.680Z,1.40
2018-10-02T15:55:28.313Z,1.20
2018-10-02T15:57:56.455Z,1.30
2018-10-02T16:00:28.268Z,1.30
2018-10-02T16:03:06.805Z,1.60
2018-10-02T16:05:45.130Z,1.30
2018-10-02T16:08:18.688Z,1.00
2018-10-02T16:10:46.909Z,1.50
2018-10-02T16:13:14.928Z,1.70
2018-10-02T16:15:43.015Z,1.50
2018-10-02T16:18:11.047Z,1.47
2018-10-02T16:20:40.226Z,1.47
2018-10-02T16:23:09.073Z,1.07
2018-10-02T16:25:38.027Z,1.10
2018-10-02T16:28:09.545Z,1.10
2018-10-02T16:30:37.437Z,1.97
2018-10-02T16:33:05.459Z,1.20
2018-10-02T16:35:34.401Z,2.47
2018-10-02T16:38:02.675Z,2.23
2018-10-02T16:40:31.559Z,1.60
2018-10-02T16:42:59.542Z,2.30
2018-10-02T16:45:27.359Z,1.53
2018-10-02T16:47:55.236Z,1.33
2018-10-02T16:50:23.345Z,1.53
2018-10-02T16:52:51.475Z,1.30
2018-10-02T16:55:19.680Z,1.60
2018-10-02T16:57:47.589Z,1.50
2018-10-02T17:00:15.451Z,1.57
2018-10-02T17:02:43.428Z,1.73
2018-10-02T17:05:11.325Z,2.23
2018-10-02T17:07:39.857Z,1.77
2018-10-02T17:10:11.318Z,1.90
2018-10-02T17:12:39.813Z,1.70
2018-10-02T17:15:08.139Z,1.40
2018-10-02T17:17:36.156Z,1.80
2018-10-02T17:20:04.761Z,1.87
2018-10-02T17:22:32.652Z,1.97
2018-10-02T17:25:00.520Z,2.10
2018-10-02T17:27:29.743Z,1.60
2018-10-02T17:29:57.705Z,2.07
2018-10-02T17:32:25.748Z,2.43
2018-10-02T17:34:54.108Z,2.53
2018-10-02T17:37:21.985Z,1.73
2018-10-02T17:39:49.925Z,1.80
2018-10-02T17:42:17.759Z,1.50
2018-10-02T17:44:45.955Z,1.60
2018-10-02T17:47:13.821Z,1.97
2018-10-02T17:49:41.880Z,1.60
2018-10-02T17:52:10.282Z,1.40
2018-10-02T17:54:38.226Z,1.80
2018-10-02T17:57:06.081Z,1.67
2018-10-02T17:59:34.132Z,2.17
2018-10-02T18:02:02.030Z,1.90
2018-10-02T18:04:29.981Z,2.13
2018-10-02T18:06:57.875Z,2.07
2018-10-02T18:09:25.824Z,1.70
2018-10-02T18:11:53.729Z,1.83
2018-10-02T18:14:21.620Z,1.70
2018-10-02T18:16:49.484Z,2.10
2018-10-02T18:19:17.460Z,2.00
2018-10-02T18:21:45.364Z,2.13
2018-10-02T18:24:13.174Z,2.07
2018-10-02T18:26:41.776Z,2.17
2018-10-02T18:29:09.777Z,2.17
2018-10-02T18:31:37.788Z,1.90
2018-10-02T18:34:05.645Z,1.60
2018-10-02T18:36:33.511Z,2.33
2018-10-02T18:39:02.005Z,2.03
2018-10-02T18:41:30.130Z,1.63
2018-10-02T18:43:59.114Z,1.70
2018-10-02T18:46:27.038Z,1.73
2018-10-02T18:48:55.292Z,1.70
2018-10-02T18:51:23.284Z,1.50
2018-10-02T18:53:51.252Z,1.63
2018-10-02T18:56:19.291Z,2.20
2018-10-02T18:58:47.085Z,2.07
2018-10-02T19:01:14.867Z,1.70
2018-10-02T19:03:42.764Z,1.87
2018-10-02T19:06:10.790Z,1.67
2018-10-02T19:08:44.244Z,1.50
2018-10-02T19:11:17.762Z,1.60
2018-10-02T19:13:45.855Z,2.87
2018-10-02T19:16:19.407Z,3.27
2018-10-02T19:18:47.312Z,2.30
2018-10-02T19:21:15.106Z,2.50
2018-10-02T19:23:43.046Z,2.33
2018-10-02T19:26:16.578Z,3.60
2018-10-02T19:28:44.643Z,2.53
2018-10-02T19:31:18.055Z,2.20
2018-10-02T19:33:46.396Z,1.63
2018-10-02T19:36:14.245Z,2.27
2018-10-02T19:38:47.824Z,2.53
2018-10-02T19:41:15.715Z,2.37
2018-10-02T19:43:43.525Z,2.93
2018-10-02T19:46:17.077Z,3.23
2018-10-02T19:48:45.030Z,2.80
2018-10-02T19:51:18.481Z,3.90
2018-10-02T19:53:46.365Z,4.73
2018-10-02T19:56:14.867Z,4.07
2018-10-02T19:58:42.916Z,7.47
2018-10-02T20:01:11.738Z,3.00
2018-10-02T20:03:40.275Z,2.13
2018-10-02T20:06:08.181Z,1.60
2018-10-02T20:08:36.044Z,1.40
2018-10-02T20:11:03.892Z,1.50
2018-10-02T20:13:31.795Z,1.53
2018-10-02T20:15:59.749Z,1.27
2018-10-02T20:18:27.732Z,1.50
2018-10-02T20:20:55.924Z,1.87
2018-10-02T20:23:23.855Z,1.53
2018-10-02T20:25:51.795Z,1.80
2018-10-02T20:28:19.841Z,1.43
2018-10-02T20:33:10.748Z,1.50
2018-10-02T20:35:38.350Z,1.53
2018-10-02T20:38:06.212Z,2.53
2018-10-02T20:40:33.748Z,3.60
2018-10-02T20:43:01.688Z,2.83
2018-10-02T20:45:29.266Z,2.43
2018-10-02T20:47:57.018Z,1.33
2018-10-02T20:50:24.778Z,1.40
2018-10-02T20:52:53.008Z,2.00
2018-10-02T20:55:21.327Z,1.60
2018-10-02T20:57:49.159Z,1.57
2018-10-02T21:00:16.767Z,1.43
2018-10-02T21:02:44.347Z,1.13
2018-10-02T21:05:11.897Z,1.67
2018-10-02T21:07:43.363Z,1.10
2018-10-02T21:10:11.003Z,1.23
2018-10-02T21:12:38.558Z,1.17
2018-10-02T21:15:06.214Z,1.50
2018-10-02T21:17:33.842Z,1.43
2018-10-02T21:20:01.665Z,1.67
2018-10-02T21:22:29.325Z,1.60
2018-10-02T21:24:56.873Z,1.53
2018-10-02T21:27:24.663Z,1.50
2018-10-02T21:29:52.224Z,1.43
2018-10-02T21:32:20.783Z,1.60
2018-10-02T21:34:48.322Z,1.57
2018-10-02T21:37:15.876Z,1.87
2018-10-02T21:39:43.653Z,1.40
2018-10-02T21:42:11.377Z,1.40
2018-10-02T21:44:39.017Z,1.80
2018-10-02T21:47:07.230Z,1.77
2018-10-02T21:49:34.900Z,1.33
2018-10-02T21:52:02.461Z,1.90
2018-10-02T21:54:30.203Z,2.07
2018-10-02T21:56:57.878Z,1.57
2018-10-02T21:59:25.467Z,1.47
2018-10-02T22:01:53.028Z,1.87
2018-10-02T22:04:20.642Z,1.93
2018-10-02T22:06:48.212Z,2.57
2018-10-02T22:09:15.803Z,1.93
2018-10-02T22:11:43.447Z,1.83
2018-10-02T22:14:11.029Z,1.80
2018-10-02T22:16:38.673Z,1.43
2018-10-02T22:19:06.204Z,1.33
2018-10-02T22:21:33.747Z,1.87
2018-10-02T22:24:01.421Z,1.83
2018-10-02T22:26:29.003Z,1.50
2018-10-02T22:28:56.782Z,2.23
2018-10-02T22:31:24.403Z,1.90
2018-10-02T22:33:51.928Z,1.70
2018-10-02T22:36:19.916Z,1.40
2018-10-02T22:38:47.511Z,1.60
2018-10-02T22:41:15.095Z,1.40
2018-10-02T22:43:42.690Z,1.60
2018-10-02T22:46:10.490Z,1.63
2018-10-02T22:48:38.116Z,2.13
2018-10-02T22:51:05.861Z,1.80
2018-10-02T22:53:33.394Z,1.93
2018-10-02T22:56:00.954Z,1.63
2018-10-02T22:58:28.765Z,1.80
2018-10-02T23:00:56.502Z,1.33
2018-10-02T23:03:24.071Z,2.00
2018-10-02T23:05:51.831Z,1.70
2018-10-02T23:08:19.396Z,1.30
2018-10-02T23:10:47.302Z,1.40
2018-10-02T23:13:14.857Z,1.43
2018-10-02T23:15:42.412Z,2.20
2018-10-02T23:18:09.974Z,1.47
2018-10-02T23:20:37.543Z,1.97
2018-10-02T23:23:05.122Z,1.63
2018-10-02T23:25:32.739Z,1.40
2018-10-02T23:28:00.274Z,1.60
2018-10-02T23:30:27.838Z,1.70
2018-10-02T23:32:55.673Z,2.00
2018-10-02T23:35:23.315Z,1.73
2018-10-02T23:37:51.091Z,1.37
2018-10-02T23:40:18.716Z,1.50
2018-10-02T23:42:46.290Z,1.47
2018-10-02T23:45:13.859Z,1.50
2018-10-02T23:47:42.338Z,1.70
2018-10-02T23:50:09.918Z,1.67
2018-10-02T23:52:37.471Z,1.87
2018-10-02T23:55:05.196Z,2.00
2018-10-02T23:57:32.755Z,1.33
